Time;durP1;ratioP1;P1;durP2;ratioP2;P2;SDS_P1;SDS_P2;PMS_P1;PMS_P2;Temp;Humidity;BMP_temperature;BMP_pressure;BME280_temperature;BME280_humidity;BME280_pressure;Samples;Min_cycle;Max_cycle;Signal;HPM_P1;HPM_P2
2022/05/10 00:00:06;;;;;;;10.63;4.05;;;;;;;4.24;59.21;100128.81;5002068;28;20049;-72
2022/05/10 00:02:41;;;;;;;12.13;3.97;;;;;;;4.26;59.35;100115.06;5003885;28;20088;-71
2022/05/10 00:05:08;;;;;;;11.18;4.13;;;;;;;4.22;58.68;100117.38;5005865;28;20053;-72
2022/05/10 00:07:36;;;;;;;12.13;4.60;;;;;;;4.25;58.59;100125.03;4987134;28;20042;-72
2022/05/10 00:10:07;;;;;;;15.32;6.93;;;;;;;4.23;58.84;100118.22;5005792;28;20467;-72
2022/05/10 00:12:33;;;;;;;18.33;8.50;;;;;;;4.23;58.52;100115.50;5004597;28;20401;-72
2022/05/10 00:14:59;;;;;;;16.23;5.40;;;;;;;4.22;58.60;100122.78;5006651;28;20057;-72
2022/05/10 00:17:31;;;;;;;16.92;7.25;;;;;;;4.18;58.94;100109.91;5006928;28;20148;-72
2022/05/10 00:20:01;;;;;;;6.97;2.38;;;;;;;4.10;58.69;100111.88;5003650;28;20054;-72
2022/05/10 00:22:28;;;;;;;14.63;3.83;;;;;;;4.14;58.23;100114.13;5001818;28;20054;-72
2022/05/10 00:24:55;;;;;;;16.58;7.30;;;;;;;4.09;58.73;100114.81;5004333;28;20128;-72
2022/05/10 00:27:22;;;;;;;10.77;5.07;;;;;;;4.08;58.47;100105.88;5002406;28;20030;-71
2022/05/10 00:29:48;;;;;;;;;;;;;;;4.08;58.17;100108.56;5020698;28;20053;-71
2022/05/10 00:32:14;;;;;;;15.23;5.95;;;;;;;4.08;58.13;100102.31;5013715;28;19971;-71
2022/05/10 00:34:41;;;;;;;11.00;3.03;;;;;;;4.00;57.74;100089.09;5013812;28;20107;-72
2022/05/10 00:37:09;;;;;;;16.17;5.70;;;;;;;4.04;58.62;100107.34;5020050;28;20060;-72
2022/05/10 00:39:35;;;;;;;9.07;3.50;;;;;;;3.96;58.66;100111.16;5015058;28;20049;-72
2022/05/10 00:42:06;;;;;;;8.73;2.80;;;;;;;3.92;58.75;100101.03;5003477;28;20125;-72
2022/05/10 00:44:39;;;;;;;8.38;2.83;;;;;;;3.89;58.66;100104.16;5002050;28;20505;-72
2022/05/10 00:47:14;;;;;;;8.73;3.63;;;;;;;3.86;59.26;100112.75;4985564;28;20082;-72
2022/05/10 00:49:47;;;;;;;10.50;4.30;;;;;;;3.81;59.52;100108.00;4987354;28;20049;-72
2022/05/10 00:52:21;;;;;;;14.20;4.68;;;;;;;3.79;59.61;100112.78;5005253;28;20054;-72
2022/05/10 00:54:55;;;;;;;18.55;9.68;;;;;;;3.78;59.61;100111.16;5000719;28;20053;-72
2022/05/10 00:57:30;;;;;;;15.48;6.63;;;;;;;3.76;59.89;100108.69;5004418;28;20492;-72
2022/05/10 01:00:03;;;;;;;12.88;4.20;;;;;;;3.69;60.09;100106.03;5005481;28;20073;-71
2022/05/10 01:02:38;;;;;;;14.98;5.43;;;;;;;3.66;60.32;100101.03;5003811;28;20046;-72
2022/05/10 01:05:11;;;;;;;13.30;3.28;;;;;;;3.63;60.33;100104.19;5005621;28;20038;-71
2022/05/10 01:07:49;;;;;;;9.68;3.55;;;;;;;3.60;60.60;100099.22;5003542;28;20078;-71
2022/05/10 01:10:25;;;;;;;14.70;3.97;;;;;;;3.59;60.52;100094.88;5004568;28;20290;-72
2022/05/10 01:12:57;;;;;;;13.93;5.28;;;;;;;3.59;60.39;100102.16;5003157;28;20514;-71
2022/05/10 01:15:25;;;;;;;12.35;5.72;;;;;;;3.57;60.64;100091.56;4988217;28;20539;-72
2022/05/10 01:17:55;;;;;;;27.90;11.27;;;;;;;3.53;61.16;100093.88;5002435;28;20089;-72
2022/05/10 01:20:27;;;;;;;13.43;4.55;;;;;;;3.52;60.91;100086.00;5003002;28;20088;-72
2022/05/10 01:23:03;;;;;;;8.50;3.45;;;;;;;3.51;60.87;100084.31;5002989;28;20042;-71
2022/05/10 01:25:46;;;;;;;18.92;8.23;;;;;;;3.49;61.13;100083.72;5001970;28;20048;-71
2022/05/10 01:28:23;;;;;;;17.55;8.70;;;;;;;3.45;61.58;100079.81;4999661;28;20104;-72
2022/05/10 01:30:49;;;;;;;11.10;4.75;;;;;;;3.43;61.41;100087.31;5018828;28;20045;-72
2022/05/10 01:33:30;;;;;;;21.38;10.20;;;;;;;3.44;61.52;100089.81;5020495;28;20539;-71
2022/05/10 01:36:10;;;;;;;28.08;14.75;;;;;;;3.44;61.51;100094.38;5022569;28;20046;-72
2022/05/10 01:38:43;;;;;;;15.75;5.38;;;;;;;3.38;61.73;100083.41;5024182;28;20144;-71
2022/05/10 01:41:15;;;;;;;9.80;4.25;;;;;;;3.36;61.53;100081.97;5022012;28;20080;-72
2022/05/10 01:43:47;;;;;;;22.15;8.13;;;;;;;3.38;61.76;100087.97;5022780;28;20064;-71
2022/05/10 01:46:18;;;;;;;13.80;4.30;;;;;;;3.36;61.48;100096.31;5004131;28;20042;-71
2022/05/10 01:48:50;;;;;;;21.13;8.52;;;;;;;3.37;61.71;100089.03;5002741;28;20531;-71
2022/05/10 01:51:21;;;;;;;10.95;4.00;;;;;;;3.38;61.78;100083.41;5020226;28;20578;-72
2022/05/10 01:53:47;;;;;;;15.48;4.90;;;;;;;3.35;61.76;100086.53;5002743;28;20535;-71
2022/05/10 01:56:17;;;;;;;16.95;7.65;;;;;;;3.37;61.79;100089.88;5003080;28;20493;-72
2022/05/10 01:58:45;;;;;;;21.38;8.48;;;;;;;3.31;62.33;100073.69;5001371;28;20045;-72
2022/05/10 02:01:15;;;;;;;19.27;5.05;;;;;;;3.38;61.95;100082.56;5002044;28;20095;-71
2022/05/10 02:03:44;;;;;;;13.65;3.92;;;;;;;3.44;61.92;100081.72;5002032;28;20157;-72
2022/05/10 02:06:16;;;;;;;20.20;10.40;;;;;;;3.48;61.66;100072.09;5003047;28;20050;-71
2022/05/10 02:08:51;;;;;;;11.15;4.35;;;;;;;3.50;61.53;100070.00;5003089;28;20050;-71
2022/05/10 02:11:18;;;;;;;17.50;7.57;;;;;;;3.54;61.34;100067.69;5002391;28;20054;-71
2022/05/10 02:13:51;;;;;;;8.23;2.85;;;;;;;3.54;60.85;100065.78;5005094;28;20060;-72
2022/05/10 02:16:22;;;;;;;12.70;5.10;;;;;;;3.63;60.54;100070.94;5002456;28;20060;-72
2022/05/10 02:18:52;;;;;;;9.75;3.10;;;;;;;3.61;60.60;100065.72;5001916;28;20081;-71
2022/05/10 02:21:23;;;;;;;33.00;15.10;;;;;;;3.61;60.93;100063.03;5002674;28;20312;-72
2022/05/10 02:23:55;;;;;;;17.65;7.90;;;;;;;3.63;60.94;100065.53;5002203;28;20042;-72
2022/05/10 02:26:28;;;;;;;11.82;2.90;;;;;;;3.67;60.57;100070.28;4982462;28;20050;-71
2022/05/10 02:29:06;;;;;;;24.42;10.07;;;;;;;3.67;60.59;100059.44;5001320;28;20049;-71
2022/05/10 02:33:06;;;;;;;13.73;6.05;;;;;;;3.73;60.13;100054.19;5022989;28;20041;-72
2022/05/10 02:34:29;;;;;;;39.13;19.08;;;;;;;3.74;60.39;100059.34;5024231;28;20049;-72
2022/05/10 02:36:55;;;;;;;27.08;14.32;;;;;;;3.77;60.37;100063.50;5022335;28;20053;-72
2022/05/10 02:39:21;;;;;;;11.07;4.72;;;;;;;3.80;59.78;100060.34;5025611;28;20417;-72
2022/05/10 02:41:47;;;;;;;17.50;4.82;;;;;;;3.82;59.61;100060.94;5024758;28;20076;-72
2022/05/10 02:44:15;;;;;;;13.10;4.07;;;;;;;3.86;59.36;100056.78;4994924;28;20052;-72
2022/05/10 02:46:41;;;;;;;12.10;5.35;;;;;;;3.88;59.02;100057.38;5004577;28;20244;-71
2022/05/10 02:49:07;;;;;;;15.23;5.18;;;;;;;3.90;58.90;100062.53;5003205;28;20037;-71
2022/05/10 02:51:33;;;;;;;26.33;10.80;;;;;;;3.91;58.84;100048.00;5021492;28;20509;-72
2022/05/10 02:53:59;;;;;;;14.82;5.93;;;;;;;3.94;58.30;100050.25;5005926;28;20116;-71
2022/05/10 02:56:28;;;;;;;20.55;9.77;;;;;;;3.96;58.82;100050.84;5004800;28;20182;-71
2022/05/10 02:58:58;;;;;;;33.33;16.70;;;;;;;3.97;59.17;100044.38;5005447;28;20054;-71
2022/05/10 03:01:33;;;;;;;30.08;14.10;;;;;;;4.00;59.23;100048.50;5004134;28;20493;-71
2022/05/10 03:04:00;;;;;;;20.00;9.68;;;;;;;4.07;58.51;100054.66;5005745;28;20058;-71
2022/05/10 03:06:27;;;;;;;20.45;7.40;;;;;;;4.11;58.31;100045.03;5007521;28;20074;-71
2022/05/10 03:08:56;;;;;;;14.27;5.68;;;;;;;4.11;57.85;100050.44;5006944;28;20405;-71
2022/05/10 03:11:22;;;;;;;;;;;;;;;4.17;57.68;100035.19;5009842;28;20464;-71
2022/05/10 03:13:49;;;;;;;16.90;5.20;;;;;;;4.20;57.26;100046.41;5006689;28;19929;-71
2022/05/10 03:16:19;;;;;;;13.57;6.22;;;;;;;4.23;57.45;100045.94;5007863;28;20053;-71
2022/05/10 03:18:47;;;;;;;17.23;5.63;;;;;;;4.25;57.15;100051.94;5003721;28;20100;-71
2022/05/10 03:21:13;;;;;;;10.32;3.67;;;;;;;4.29;56.83;100054.19;5003204;28;20124;-71
2022/05/10 03:23:39;;;;;;;20.23;9.57;;;;;;;4.30;57.00;100040.44;5004210;28;20063;-71
2022/05/10 03:26:06;;;;;;;15.48;5.05;;;;;;;4.31;57.00;100044.81;5002410;28;20309;-71
2022/05/10 03:28:36;;;;;;;20.65;8.80;;;;;;;4.33;57.12;100042.69;5007463;28;20061;-71
2022/05/10 03:31:03;;;;;;;10.60;3.35;;;;;;;4.37;56.49;100049.31;5003821;28;20123;-71
2022/05/10 03:33:29;;;;;;;17.63;8.10;;;;;;;4.39;57.05;100047.22;5008491;28;20067;-71
2022/05/10 03:35:57;;;;;;;13.25;5.78;;;;;;;4.42;56.72;100054.03;5025575;28;20045;-71
2022/05/10 03:38:23;;;;;;;13.88;4.10;;;;;;;4.46;56.18;100039.00;5024920;28;20135;-71
2022/05/10 03:40:49;;;;;;;13.85;6.32;;;;;;;4.49;56.74;100038.53;5023017;28;20420;-72
2022/05/10 03:43:15;;;;;;;16.42;5.72;;;;;;;4.53;56.27;100034.31;5006037;28;20049;-71
2022/05/10 03:45:41;;;;;;;10.15;3.30;;;;;;;4.62;56.24;100031.31;5023234;28;20053;-71
2022/05/10 03:48:08;;;;;;;11.50;4.55;;;;;;;4.67;55.65;100034.13;5023307;28;20472;-71
2022/05/10 03:50:34;;;;;;;13.10;4.53;;;;;;;4.71;55.37;100032.63;5023783;28;20041;-71
2022/05/10 03:53:02;;;;;;;9.98;3.15;;;;;;;4.77;55.08;100028.16;5022295;28;20061;-71
2022/05/10 03:55:28;;;;;;;;;;;;;;;4.80;55.03;100028.53;5025191;28;20049;-71
2022/05/10 03:57:55;;;;;;;20.00;8.00;;;;;;;4.86;54.87;100028.66;4985424;28;19933;-72
2022/05/10 04:00:23;;;;;;;17.05;6.65;;;;;;;4.91;54.70;100010.66;5006023;28;20579;-72
2022/05/10 04:02:50;;;;;;;16.80;8.25;;;;;;;4.95;54.84;100011.03;5004973;28;20130;-71
2022/05/10 04:05:17;;;;;;;11.57;4.13;;;;;;;5.04;53.87;100016.94;5004098;28;20633;-72
2022/05/10 04:07:43;;;;;;;31.63;16.27;;;;;;;5.11;54.13;100020.34;5007271;28;20061;-71
2022/05/10 04:10:13;;;;;;;15.95;7.40;;;;;;;5.18;53.64;100023.78;5005340;28;20121;-72
2022/05/10 04:12:39;;;;;;;15.32;5.90;;;;;;;5.24;52.80;100012.00;5020192;28;20045;-72
2022/05/10 04:15:09;;;;;;;18.33;7.80;;;;;;;5.28;52.42;100000.69;5023007;28;20061;-72
2022/05/10 04:17:35;;;;;;;10.30;3.22;;;;;;;5.30;51.87;100006.69;5022254;28;20049;-72
2022/05/10 04:20:02;;;;;;;18.13;3.33;;;;;;;5.33;51.27;100011.66;5039927;28;20088;-71
2022/05/10 04:22:29;;;;;;;10.65;4.47;;;;;;;5.37;51.76;100008.22;5022395;28;20095;-71
2022/05/10 04:24:55;;;;;;;14.77;5.95;;;;;;;5.42;51.40;100004.81;5022964;28;20068;-71
2022/05/10 04:27:22;;;;;;;12.43;5.30;;;;;;;5.46;51.21;100003.28;5021714;28;20084;-71
2022/05/10 04:29:48;;;;;;;10.48;4.90;;;;;;;5.53;51.26;100001.28;5023592;28;20045;-72
2022/05/10 04:32:14;;;;;;;16.90;7.60;;;;;;;5.59;51.56;99993.25;5022649;28;20041;-71
2022/05/10 04:34:40;;;;;;;21.10;5.63;;;;;;;5.71;50.72;99985.13;5002203;28;20049;-71
2022/05/10 04:37:06;;;;;;;12.07;4.85;;;;;;;5.76;49.69;99993.38;5004346;28;20079;-72
2022/05/10 04:42:17;;;;;;;10.45;4.32;;;;;;;5.88;49.03;99996.06;5020816;28;20412;-71
2022/05/10 04:44:44;;;;;;;29.40;11.88;;;;;;;5.99;48.78;99994.38;5022994;28;20064;-71
2022/05/10 04:47:10;;;;;;;24.10;7.88;;;;;;;6.08;48.09;99992.97;5023956;28;20095;-72
2022/05/10 04:49:36;;;;;;;11.73;4.55;;;;;;;6.22;47.58;99996.22;5021505;28;20778;-72
2022/05/10 04:52:03;;;;;;;12.05;3.80;;;;;;;6.32;47.54;99990.19;5021626;28;20049;-72
2022/05/10 04:54:29;;;;;;;8.77;3.17;;;;;;;6.38;47.31;99987.31;5023309;28;20172;-72
2022/05/10 04:56:55;;;;;;;19.20;9.90;;;;;;;6.46;47.62;99974.44;5004402;28;20068;-72
2022/05/10 04:59:21;;;;;;;18.42;6.72;;;;;;;6.48;46.67;99978.56;5004855;28;20555;-72
2022/05/10 05:01:49;;;;;;;23.02;9.10;;;;;;;6.47;46.47;99967.94;5004260;28;20125;-72
2022/05/10 05:04:15;;;;;;;8.25;3.45;;;;;;;6.46;45.55;99955.41;5022250;28;20080;-72
2022/05/10 05:06:42;;;;;;;17.67;8.45;;;;;;;6.45;46.29;99961.91;5023333;28;20053;-72
2022/05/10 05:09:08;;;;;;;22.13;10.73;;;;;;;6.45;46.11;99962.72;5024533;28;20061;-71
2022/05/10 05:11:34;;;;;;;10.88;3.90;;;;;;;6.47;45.57;99974.16;5024482;28;20088;-71
2022/05/10 05:14:00;;;;;;;14.45;5.30;;;;;;;6.52;45.76;99968.84;5022154;28;20053;-71
2022/05/10 05:16:26;;;;;;;11.77;4.55;;;;;;;6.50;45.65;99975.59;5021685;28;20045;-72
2022/05/10 05:18:54;;;;;;;6.03;1.75;;;;;;;6.51;45.84;99974.53;5022316;28;20065;-72
2022/05/10 05:21:20;;;;;;;17.88;7.85;;;;;;;6.57;45.84;99959.97;5020960;28;20080;-72
2022/05/10 05:23:46;;;;;;;14.27;5.75;;;;;;;6.60;45.38;99943.19;5005939;28;20123;-71
2022/05/10 05:26:12;;;;;;;14.80;5.07;;;;;;;6.56;44.52;99939.31;5008682;28;20056;-72
2022/05/10 05:28:38;;;;;;;16.23;7.13;;;;;;;6.61;45.21;99952.13;5001433;28;20052;-71
2022/05/10 05:31:06;;;;;;;19.63;7.75;;;;;;;6.75;44.85;99933.66;5006204;28;20144;-71
2022/05/10 05:33:33;;;;;;;14.82;7.13;;;;;;;6.82;44.69;99931.56;5021674;28;20079;-71
2022/05/10 05:36:00;;;;;;;6.95;2.65;;;;;;;6.87;44.25;99934.41;5023791;28;20041;-71
2022/05/10 05:38:27;;;;;;;13.30;4.75;;;;;;;6.93;43.17;99908.94;5022793;28;20191;-72
2022/05/10 05:40:53;;;;;;;15.68;7.25;;;;;;;6.92;42.99;99917.31;5021579;28;20466;-71
2022/05/10 05:43:21;;;;;;;16.20;3.08;;;;;;;6.94;43.08;99916.03;5024474;28;20131;-71
2022/05/10 05:45:49;;;;;;;13.88;7.20;;;;;;;7.04;44.15;99920.78;5021850;28;20050;-71
2022/05/10 05:48:15;;;;;;;10.63;2.85;;;;;;;7.21;42.00;99911.78;5038242;28;20053;-71
2022/05/10 05:50:41;;;;;;;6.93;2.78;;;;;;;7.33;42.22;99915.22;5020529;28;20052;-72
2022/05/10 05:53:10;;;;;;;12.20;4.43;;;;;;;7.47;41.85;99915.69;5021752;28;20049;-72
2022/05/10 05:55:36;;;;;;;9.02;3.45;;;;;;;7.61;41.33;99907.16;5009050;28;20073;-72
2022/05/10 05:58:03;;;;;;;13.75;6.03;;;;;;;7.77;41.36;99919.88;5003382;28;20421;-72
2022/05/10 06:00:29;;;;;;;21.10;7.50;;;;;;;7.88;40.10;99899.06;5002347;28;20053;-72
2022/05/10 06:02:56;;;;;;;9.95;4.50;;;;;;;7.93;38.88;99907.28;5022564;28;20053;-71
2022/05/10 06:05:24;;;;;;;26.58;8.68;;;;;;;8.00;39.80;99922.59;5021889;28;20058;-71
2022/05/10 06:07:50;;;;;;;13.40;5.55;;;;;;;8.12;39.63;99898.78;5021881;28;20167;-72
2022/05/10 06:10:18;;;;;;;6.97;2.60;;;;;;;8.23;37.73;99895.09;5018190;28;20543;-72
2022/05/10 06:12:44;;;;;;;12.02;4.88;;;;;;;8.24;38.61;99885.00;5021555;28;20049;-72
2022/05/10 06:15:12;;;;;;;12.32;5.47;;;;;;;8.26;38.84;99884.75;5028476;28;20524;-72
2022/05/10 06:17:41;;;;;;;13.98;6.15;;;;;;;8.37;38.86;99895.47;5026731;28;20054;-71
2022/05/10 06:20:10;;;;;;;13.88;4.32;;;;;;;8.53;37.72;99873.06;5024908;28;20045;-72
2022/05/10 06:22:36;;;;;;;17.75;4.72;;;;;;;8.44;37.97;99868.03;5028793;28;20059;-72
2022/05/10 06:25:06;;;;;;;15.43;7.18;;;;;;;8.58;37.80;99878.53;5026712;28;20374;-71
2022/05/10 06:27:34;;;;;;;11.60;3.85;;;;;;;8.72;37.40;99873.47;5025040;28;20045;-72
2022/05/10 06:30:00;;;;;;;11.65;2.90;;;;;;;8.87;37.29;99864.59;5026277;28;20081;-71
2022/05/10 06:32:27;;;;;;;12.52;3.67;;;;;;;8.68;36.83;99847.81;5022677;28;20068;-71
2022/05/10 06:34:53;;;;;;;14.77;4.83;;;;;;;8.52;38.26;99864.03;5022732;28;20076;-71
2022/05/10 06:40:08;;;;;;;10.88;3.97;;;;;;;8.73;38.19;99859.56;5021382;28;20045;-72
2022/05/10 06:42:36;;;;;;;28.73;10.68;;;;;;;8.97;38.82;99848.28;5014611;28;20277;-71
2022/05/10 06:45:08;;;;;;;10.90;4.93;;;;;;;9.17;37.85;99853.03;5018876;28;20057;-71
2022/05/10 06:47:35;;;;;;;21.70;8.57;;;;;;;9.08;38.34;99844.53;5002925;28;20046;-71
2022/05/10 06:50:07;;;;;;;31.98;5.25;;;;;;;9.00;37.90;99817.78;5021153;28;20057;-71
2022/05/10 06:52:33;;;;;;;12.50;3.03;;;;;;;8.83;36.29;99844.38;5005106;28;20517;-71
2022/05/10 06:54:59;;;;;;;17.83;5.57;;;;;;;8.73;36.64;99850.56;5007225;28;20050;-72
2022/05/10 06:57:25;;;;;;;14.80;4.85;;;;;;;8.79;36.84;99855.78;5004686;28;20053;-72
2022/05/10 06:59:54;;;;;;;12.23;5.15;;;;;;;9.03;35.86;99835.50;5006602;28;20112;-71
2022/05/10 07:02:20;;;;;;;10.75;2.78;;;;;;;9.18;35.09;99837.50;5003995;28;20081;-71
2022/05/10 07:04:46;;;;;;;10.98;4.07;;;;;;;9.39;33.28;99815.78;5004968;28;20100;-71
2022/05/10 07:07:12;;;;;;;19.75;6.93;;;;;;;9.34;33.72;99816.56;5004011;28;20468;-71
2022/05/10 07:09:38;;;;;;;15.93;4.68;;;;;;;9.40;33.26;99823.69;5025026;28;20053;-71
2022/05/10 07:12:06;;;;;;;15.57;6.72;;;;;;;9.46;34.03;99825.34;5037265;28;20046;-71
2022/05/10 07:14:32;;;;;;;8.63;3.03;;;;;;;9.57;33.35;99812.56;5004404;28;20177;-71
2022/05/10 07:17:00;;;;;;;12.25;5.22;;;;;;;9.57;33.90;99798.09;5022520;28;20570;-71
2022/05/10 07:19:26;;;;;;;11.57;3.00;;;;;;;9.48;34.58;99806.78;5024423;28;20045;-71
2022/05/10 07:21:52;;;;;;;13.77;3.25;;;;;;;9.39;33.50;99808.41;5023089;28;20045;-71
2022/05/10 07:24:20;;;;;;;16.63;5.00;;;;;;;9.25;33.90;99818.97;5002214;28;20057;-71
2022/05/10 07:26:46;;;;;;;16.88;4.18;;;;;;;9.10;33.43;99795.19;4986773;28;20046;-72
2022/05/10 07:29:13;;;;;;;23.38;5.00;;;;;;;8.91;33.12;99783.91;5003776;28;20046;-71
2022/05/10 07:31:39;;;;;;;18.83;3.80;;;;;;;8.56;32.25;99767.03;5004865;28;20056;-71
2022/05/10 07:34:07;;;;;;;9.57;3.47;;;;;;;8.78;32.50;99780.53;5012448;28;20054;-71
2022/05/10 07:36:36;;;;;;;13.48;3.92;;;;;;;8.91;32.67;99809.28;5009114;28;20053;-71
2022/05/10 07:39:03;;;;;;;22.83;5.32;;;;;;;9.08;32.77;99802.81;5016114;28;20037;-72
2022/05/10 07:41:30;;;;;;;15.98;5.40;;;;;;;9.34;32.34;99802.91;5015075;28;20058;-72
2022/05/10 07:43:56;;;;;;;13.95;4.03;;;;;;;9.69;31.80;99801.44;5006199;28;20076;-72
2022/05/10 07:46:23;;;;;;;20.87;5.40;;;;;;;9.99;31.81;99809.94;4998897;28;20067;-72
2022/05/10 07:48:50;;;;;;;11.18;4.38;;;;;;;10.17;31.61;99790.28;5034969;28;20046;-72
2022/05/10 07:51:18;;;;;;;15.65;6.70;;;;;;;10.43;32.06;99786.75;5016377;28;20041;-72
2022/05/10 07:53:44;;;;;;;16.92;5.00;;;;;;;10.48;31.99;99771.19;5008790;28;20050;-72
2022/05/10 07:56:14;;;;;;;18.10;5.00;;;;;;;10.34;31.79;99762.69;5026387;28;20053;-72
2022/05/10 07:58:40;;;;;;;11.88;4.03;;;;;;;10.03;32.15;99776.34;5023846;28;20049;-72
2022/05/10 08:01:07;;;;;;;20.45;4.97;;;;;;;9.83;32.46;99766.22;5024583;28;20049;-72
2022/05/10 08:03:34;;;;;;;13.48;3.83;;;;;;;9.47;32.87;99753.31;5027434;28;20048;-71
2022/05/10 08:06:01;;;;;;;31.42;6.70;;;;;;;9.40;33.57;99762.81;5022175;28;20470;-71
2022/05/10 08:08:34;;;;;;;9.57;2.67;;;;;;;9.39;32.93;99772.09;5022462;28;20049;-72
2022/05/10 08:11:02;;;;;;;13.75;5.72;;;;;;;9.53;32.98;99750.59;5016652;28;20420;-72
2022/05/10 08:13:31;;;;;;;22.07;4.90;;;;;;;9.42;32.54;99760.66;4657108;28;10000952;-72
2022/05/10 08:15:58;;;;;;;11.73;4.78;;;;;;;9.55;32.22;99754.69;4998091;28;20050;-72
2022/05/10 08:18:25;;;;;;;8.23;3.70;;;;;;;9.70;31.98;99764.84;5002975;28;20519;-72
2022/05/10 08:20:53;;;;;;;18.63;3.35;;;;;;;9.79;31.61;99741.34;5014265;28;20034;-72
2022/05/10 08:23:21;;;;;;;17.33;6.05;;;;;;;9.98;31.52;99761.88;5015078;28;20045;-72
2022/05/10 08:28:36;;;;;;;13.90;4.88;;;;;;;10.70;30.12;99750.94;5005299;28;20061;-72
2022/05/10 08:31:03;;;;;;;;;;;;;;;10.63;29.85;99756.69;5008115;28;20552;-72
2022/05/10 08:33:32;;;;;;;19.65;3.53;;;;;;;10.36;29.88;99741.38;5018772;28;19932;-72
2022/05/10 08:35:59;;;;;;;11.60;5.47;;;;;;;10.05;31.09;99726.91;5012228;28;20060;-72
2022/05/10 08:38:27;;;;;;;18.70;5.70;;;;;;;9.71;31.48;99722.78;5017497;28;20095;-72
2022/05/10 08:40:57;;;;;;;;;;;;;;;9.49;31.59;99728.47;5013358;28;20508;-72
2022/05/10 08:43:28;;;;;;;15.90;3.55;;;;;;;9.44;31.62;99728.44;5005072;28;19926;-72
2022/05/10 08:45:56;;;;;;;16.77;2.38;;;;;;;9.40;31.94;99725.47;5003230;28;20517;-72
2022/05/10 08:48:26;;;;;;;27.80;3.17;;;;;;;9.50;31.99;99711.00;5002646;28;20468;-71
2022/05/10 08:50:52;;;;;;;30.42;5.15;;;;;;;9.57;32.14;99711.56;5005246;28;20052;-72
2022/05/10 08:53:19;;;;;;;12.18;3.60;;;;;;;9.50;32.72;99694.63;5004824;28;20058;-72
2022/05/10 08:55:51;;;;;;;8.45;3.88;;;;;;;9.40;31.95;99691.88;5021617;28;20048;-72
2022/05/10 08:58:43;;;;;;;16.85;5.07;;;;;;;9.33;31.40;99711.22;5018096;28;20079;-72
2022/05/10 09:01:15;;;;;;;13.18;3.00;;;;;;;9.28;30.91;99692.94;5009560;28;20524;-72
2022/05/10 09:03:45;;;;;;;15.68;4.80;;;;;;;9.28;31.14;99709.31;5004596;28;20046;-72
2022/05/10 09:06:19;;;;;;;14.98;4.63;;;;;;;9.39;31.61;99706.63;5005462;28;20050;-72
2022/05/10 09:08:55;;;;;;;7.93;2.45;;;;;;;9.46;30.49;99708.00;5002595;28;20096;-72
2022/05/10 09:11:22;;;;;;;15.18;2.90;;;;;;;9.49;30.31;99709.38;5020519;28;20489;-70
2022/05/10 09:13:52;;;;;;;13.27;3.42;;;;;;;9.53;30.37;99705.00;5013822;28;20081;-72
2022/05/10 09:16:18;;;;;;;29.55;6.50;;;;;;;9.60;30.05;99700.13;5005868;28;20439;-72
2022/05/10 09:18:49;;;;;;;16.27;3.35;;;;;;;9.62;29.52;99680.72;5004801;28;20516;-72
2022/05/10 09:21:20;;;;;;;18.13;3.25;;;;;;;9.59;29.58;99681.28;5005058;28;20052;-72
2022/05/10 09:24:03;;;;;;;10.50;3.92;;;;;;;9.47;30.21;99717.00;4972727;28;20074;-72
2022/05/10 09:26:34;;;;;;;16.20;3.65;;;;;;;9.42;30.02;99696.00;5001650;28;20053;-72
2022/05/10 09:29:09;;;;;;;20.20;4.95;;;;;;;9.44;30.59;99710.19;5004975;28;20420;-72
2022/05/10 09:37:25;;;;;;;11.98;3.00;;;;;;;9.88;30.24;99699.88;5002634;28;20061;-73
2022/05/10 09:40:09;;;;;;;17.70;3.08;;;;;;;10.03;29.85;99699.88;4984703;28;20049;-72
2022/05/10 09:42:37;;;;;;;10.13;3.33;;;;;;;10.06;30.04;99701.22;5006894;28;20429;-72
2022/05/10 09:45:11;;;;;;;15.75;3.15;;;;;;;9.82;30.34;99709.97;5019661;28;20080;-72
2022/05/10 09:47:38;;;;;;;9.43;3.08;;;;;;;9.63;30.93;99693.28;5007211;28;20095;-72
2022/05/10 09:50:17;;;;;;;12.52;2.50;;;;;;;9.41;30.84;99680.69;5019424;28;20045;-73
2022/05/10 09:52:44;;;;;;;21.95;3.45;;;;;;;9.16;31.03;99684.19;5021539;28;20516;-72
2022/05/10 09:55:23;;;;;;;27.48;2.63;;;;;;;9.04;31.49;99709.78;5010416;28;20045;-72
2022/05/10 09:57:50;;;;;;;12.55;2.70;;;;;;;9.02;32.23;99698.31;5014887;28;20065;-71
2022/05/10 10:00:38;;;;;;;10.63;2.50;;;;;;;9.06;31.85;99723.16;5025394;28;20091;-71
2022/05/10 10:03:04;;;;;;;9.68;2.22;;;;;;;9.16;32.58;99709.53;5021890;28;20053;-71
2022/05/10 10:05:32;;;;;;;17.23;2.53;;;;;;;9.02;33.36;99687.41;5004588;28;20049;-71
2022/05/10 10:07:58;;;;;;;20.10;2.63;;;;;;;8.94;33.12;99675.13;5011969;28;20084;-71
2022/05/10 10:10:27;;;;;;;22.58;5.22;;;;;;;8.98;33.22;99693.66;5003578;28;20049;-72
2022/05/10 10:12:54;;;;;;;13.93;3.05;;;;;;;9.04;33.09;99722.59;5019216;28;20104;-72
2022/05/10 10:15:28;;;;;;;15.23;2.20;;;;;;;8.91;35.44;99705.66;5039385;28;20160;-72
2022/05/10 10:17:56;;;;;;;11.60;2.65;;;;;;;8.68;36.35;99708.78;5017141;28;20465;-71
2022/05/10 10:20:32;;;;;;;11.40;2.45;;;;;;;8.54;37.25;99719.34;5025770;28;20042;-72
2022/05/10 10:23:01;;;;;;;17.50;3.30;;;;;;;8.48;38.13;99677.59;5038207;28;20052;-72
2022/05/10 10:25:31;;;;;;;10.20;2.58;;;;;;;8.44;37.35;99707.25;5023062;28;20053;-72
2022/05/10 10:28:02;;;;;;;13.55;2.35;;;;;;;8.45;36.19;99670.75;5018149;28;20041;-72
2022/05/10 10:30:36;;;;;;;12.07;2.67;;;;;;;8.46;36.93;99709.75;5020508;28;20057;-71
2022/05/10 10:33:09;;;;;;;5.60;1.77;;;;;;;8.44;35.60;99701.00;5004834;28;20100;-72
2022/05/10 10:35:41;;;;;;;12.25;2.22;;;;;;;8.50;35.38;99689.06;5008026;28;20045;-72
2022/05/10 10:38:17;;;;;;;8.07;2.40;;;;;;;8.48;35.86;99693.94;4980109;28;20058;-71
2022/05/10 10:40:47;;;;;;;15.48;1.65;;;;;;;8.47;35.06;99717.63;4986546;28;20105;-72
2022/05/10 10:43:22;;;;;;;17.75;5.75;;;;;;;8.43;35.96;99724.69;5020688;28;20046;-72
2022/05/10 10:45:54;;;;;;;13.30;3.83;;;;;;;8.37;36.34;99699.31;5022403;28;20559;-72
2022/05/10 10:48:27;;;;;;;7.07;2.58;;;;;;;8.40;35.72;99711.59;5020541;28;20056;-71
2022/05/10 10:50:54;;;;;;;5.70;1.45;;;;;;;8.42;35.53;99703.16;5018224;28;20210;-72
2022/05/10 10:53:21;;;;;;;12.27;3.10;;;;;;;8.39;36.17;99715.41;5016587;28;20041;-72
2022/05/10 10:56:02;;;;;;;8.82;2.30;;;;;;;8.33;35.47;99716.44;5003480;28;20064;-72
2022/05/10 10:58:38;;;;;;;12.20;2.60;;;;;;;8.35;36.28;99701.50;5001636;28;20065;-71
2022/05/10 11:01:18;;;;;;;10.55;2.47;;;;;;;8.35;35.63;99711.56;4660809;28;10000664;-72
2022/05/10 11:04:01;;;;;;;8.75;2.45;;;;;;;8.36;35.45;99735.81;5003205;28;20064;-72
2022/05/10 11:06:31;;;;;;;9.63;2.03;;;;;;;8.39;36.09;99726.31;5002153;28;20592;-72
2022/05/10 11:09:24;;;;;;;6.03;1.80;;;;;;;8.38;36.21;99728.19;5005015;28;20282;-71
2022/05/10 11:12:08;;;;;;;13.32;2.85;;;;;;;8.39;36.42;99737.22;5015144;28;20093;-72
2022/05/10 11:14:50;;;;;;;9.80;2.03;;;;;;;8.33;36.47;99735.50;5001319;28;20053;-71
2022/05/10 11:17:27;;;;;;;15.60;3.33;;;;;;;8.26;37.63;99746.63;5004316;28;20041;-72
2022/05/10 11:20:14;;;;;;;8.00;2.00;;;;;;;8.23;36.94;99747.16;5001850;28;20066;-71
2022/05/10 11:22:40;;;;;;;;;;;;;;;8.11;39.58;99750.06;5005004;28;20206;-71
2022/05/10 11:25:27;;;;;;;14.63;2.63;;;;;;;7.95;39.63;99766.28;4997819;28;19925;-71
2022/05/10 11:28:19;;;;;;;7.22;1.77;;;;;;;7.85;41.59;99757.19;4995986;28;20340;-72
2022/05/10 11:30:56;;;;;;;15.98;2.00;;;;;;;7.58;44.97;99810.53;5026683;28;20050;-71
2022/05/10 11:33:33;;;;;;;7.95;1.85;;;;;;;7.13;49.08;99789.84;5020670;28;20136;-71
2022/05/10 11:36:16;;;;;;;6.13;1.70;;;;;;;6.74;51.76;99823.31;5017347;28;20672;-71
2022/05/10 11:39:03;;;;;;;4.32;1.60;;;;;;;6.49;55.08;99776.47;5011331;28;20046;-71
2022/05/10 11:41:36;;;;;;;4.20;1.50;;;;;;;6.14;57.75;99780.25;5017020;28;20041;-71
2022/05/10 11:44:43;;;;;;;9.70;2.47;;;;;;;5.89;58.72;99813.16;5003207;28;20049;-72
2022/05/10 11:47:45;;;;;;;7.00;2.00;;;;;;;5.86;58.23;99816.38;5000606;28;20285;-71
2022/05/10 11:51:38;;;;;;;8.45;2.17;;;;;;;6.00;58.20;99830.44;5003618;28;20527;-71
2022/05/10 11:54:00;;;;;;;8.85;2.58;;;;;;;6.21;59.11;99827.06;5002507;28;20172;-72
2022/05/10 11:56:33;;;;;;;8.85;2.08;;;;;;;6.27;58.27;99811.69;5005257;28;20132;-71
2022/05/10 11:59:03;;;;;;;8.73;2.65;;;;;;;6.37;58.12;99824.63;5000493;28;20094;-71